Time;durP1;ratioP1;P1;durP2;ratioP2;P2;SDS_P1;SDS_P2;PMS_P1;PMS_P2;Temp;Humidity;BMP_temperature;BMP_pressure;BME280_temperature;BME280_humidity;BME280_pressure;Samples;Min_cycle;Max_cycle;Signal;HPM_P1;HPM_P2
2023/03/21 00:00:38;;;;;;;;;;;;;;;17.90;33.26;94928.88;5091899;28;20356;-66
2023/03/21 00:03:05;;;;;;;;;;;;;;;17.94;33.36;94918.44;5091461;28;19920;-67
2023/03/21 00:05:32;;;;;;;;;;;;;;;17.85;33.34;94914.94;5092212;28;19927;-69
2023/03/21 00:07:59;;;;;;;;;;;;;;;17.76;33.97;94916.75;5091439;28;20613;-65
2023/03/21 00:10:27;;;;;;;;;;;;;;;17.75;33.95;94917.84;5091421;28;20384;-63
2023/03/21 00:13:07;;;;;;;;;;;;;;;17.77;34.26;94920.97;5080022;28;20326;-63
2023/03/21 00:15:49;;;;;;;;;;;;;;;17.83;33.90;94912.59;5091790;28;19970;-67
2023/03/21 00:18:35;;;;;;;;;;;;;;;17.83;33.73;94927.72;5092135;28;20259;-67
2023/03/21 00:21:04;;;;;;;;;;;;;;;17.78;33.93;94925.19;5091204;28;20767;-62
2023/03/21 00:23:50;;;;;;;;;;;;;;;17.80;34.00;94915.84;5091913;28;19974;-62
2023/03/21 00:26:17;;;;;;;;;;;;;;;17.83;33.87;94917.09;5091295;28;20375;-63
2023/03/21 00:28:44;;;;;;;;;;;;;;;17.82;33.95;94913.69;5091622;28;19977;-68
2023/03/21 00:31:11;;;;;;;;;;;;;;;17.78;34.26;94919.88;5089802;28;20279;-67
2023/03/21 00:33:38;;;;;;;;;;;;;;;17.84;33.65;94916.84;5091784;28;19959;-66
2023/03/21 00:36:05;;;;;;;;;;;;;;;17.73;33.84;94920.00;5091062;28;20268;-66
2023/03/21 00:38:34;;;;;;;;;;;;;;;17.69;33.98;94921.69;5091095;28;20363;-65
2023/03/21 00:41:09;;;;;;;;;;;;;;;17.65;34.37;94926.00;5090264;28;19969;-66
2023/03/21 00:43:50;;;;;;;;;;;;;;;17.76;34.21;94927.34;5081108;28;19997;-64
2023/03/21 00:46:17;;;;;;;;;;;;;;;17.58;34.36;94925.63;5090375;28;19966;-61
2023/03/21 00:48:45;;;;;;;;;;;;;;;17.48;34.39;94923.19;5091430;28;19920;-65
2023/03/21 00:51:20;;;;;;;;;;;;;;;17.27;34.82;94929.94;5088797;28;20359;-62
2023/03/21 00:53:47;;;;;;;;;;;;;;;17.41;34.66;94922.78;5094353;28;19927;-66
2023/03/21 00:56:14;;;;;;;;;;;;;;;17.34;34.51;94920.53;5089250;28;19927;-65
2023/03/21 00:58:41;;;;;;;;;;;;;;;17.02;34.72;94921.44;5091252;28;19920;-65
2023/03/21 01:01:08;;;;;;;;;;;;;;;16.90;35.36;94915.06;5090193;28;19923;-67
2023/03/21 01:03:41;;;;;;;;;;;;;;;17.31;34.52;94915.03;5091344;28;19946;-66
2023/03/21 01:06:12;;;;;;;;;;;;;;;17.17;34.58;94915.03;5088192;28;19927;-68
2023/03/21 01:08:40;;;;;;;;;;;;;;;17.22;34.62;94918.38;5090953;28;19924;-66
2023/03/21 01:11:19;;;;;;;;;;;;;;;16.69;35.25;94913.88;5089872;28;20710;-68
2023/03/21 01:13:46;;;;;;;;;;;;;;;16.70;36.09;94915.44;5095279;28;19930;-63
2023/03/21 01:16:24;;;;;;;;;;;;;;;16.61;35.60;94912.69;5089882;28;19928;-66
2023/03/21 01:18:51;;;;;;;;;;;;;;;16.46;35.92;94910.28;5088712;28;19920;-66
2023/03/21 01:21:19;;;;;;;;;;;;;;;16.41;35.86;94902.44;5093042;28;19927;-63
2023/03/21 01:23:46;;;;;;;;;;;;;;;16.29;36.81;94901.34;5091115;28;19924;-63
2023/03/21 01:26:13;;;;;;;;;;;;;;;16.46;35.70;94915.56;5088293;28;20417;-63
2023/03/21 01:28:41;;;;;;;;;;;;;;;16.74;35.74;94909.28;5090213;28;20298;-64
2023/03/21 01:31:09;;;;;;;;;;;;;;;16.61;35.47;94910.03;5089728;28;19993;-67
2023/03/21 01:33:36;;;;;;;;;;;;;;;16.12;36.31;94915.09;5103837;28;20474;-67
2023/03/21 01:36:03;;;;;;;;;;;;;;;16.12;37.03;94920.38;5088147;28;20379;-62
2023/03/21 01:38:40;;;;;;;;;;;;;;;16.12;36.00;94915.88;5075278;28;20597;-63
2023/03/21 01:41:13;;;;;;;;;;;;;;;16.14;36.74;94912.94;5089464;28;19981;-62
2023/03/21 01:43:47;;;;;;;;;;;;;;;16.52;36.09;94903.84;5087815;28;19924;-62
2023/03/21 01:46:34;;;;;;;;;;;;;;;16.55;35.66;94908.56;5087826;28;20421;-64
2023/03/21 01:49:44;;;;;;;;;;;;;;;16.13;36.55;94906.84;5104497;28;19919;-64
2023/03/21 01:52:23;;;;;;;;;;;;;;;16.49;36.48;94904.44;5077962;28;19920;-61
2023/03/21 01:55:10;;;;;;;;;;;;;;;16.03;36.40;94903.59;5088548;28;20346;-66
2023/03/21 01:57:58;;;;;;;;;;;;;;;15.76;36.97;94911.41;5087239;28;19927;-63
2023/03/21 02:01:00;;;;;;;;;;;;;;;15.32;37.74;94906.47;5087205;28;20032;-69
2023/03/21 02:03:48;;;;;;;;;;;;;;;15.92;37.13;94904.84;5088395;28;19924;-64
2023/03/21 02:06:35;;;;;;;;;;;;;;;15.96;36.87;94903.97;5087578;28;20371;-68
2023/03/21 02:09:12;;;;;;;;;;;;;;;15.79;37.33;94913.47;5087569;28;19931;-64
2023/03/21 02:11:40;;;;;;;;;;;;;;;15.85;37.32;94909.69;5104423;28;19924;-68
2023/03/21 02:14:11;;;;;;;;;;;;;;;15.96;36.78;94898.69;5088026;28;19926;-64
2023/03/21 02:17:23;;;;;;;;;;;;;;;16.21;36.62;94898.28;5087631;28;19997;-67
2023/03/21 02:20:01;;;;;;;;;;;;;;;15.58;38.11;94893.72;5071963;28;19923;-64
2023/03/21 02:22:36;;;;;;;;;;;;;;;15.92;37.51;94905.63;5089622;28;19928;-65
2023/03/21 02:25:12;;;;;;;;;;;;;;;15.95;36.93;94904.25;5088335;28;19973;-65
2023/03/21 02:28:02;;;;;;;;;;;;;;;16.06;36.85;94895.09;5087685;28;20366;-69
2023/03/21 02:30:52;;;;;;;;;;;;;;;16.19;36.88;94899.63;5088170;28;20011;-64
2023/03/21 02:33:40;;;;;;;;;;;;;;;16.01;37.09;94897.81;5087631;28;19931;-66
2023/03/21 02:36:25;;;;;;;;;;;;;;;16.27;36.06;94904.28;5088729;28;20395;-65
2023/03/21 02:38:52;;;;;;;;;;;;;;;16.18;36.79;94898.84;5076106;28;20018;-63
2023/03/21 02:41:42;;;;;;;;;;;;;;;16.03;36.83;94895.66;5087716;28;20232;-67
2023/03/21 02:44:15;;;;;;;;;;;;;;;16.06;36.88;94905.66;5067792;28;20645;-69
2023/03/21 02:46:45;;;;;;;;;;;;;;;15.80;36.71;94901.84;5092523;28;19920;-63
2023/03/21 02:49:25;;;;;;;;;;;;;;;15.86;37.45;94906.75;5091784;28;19930;-68
2023/03/21 02:51:55;;;;;;;;;;;;;;;15.79;37.25;94897.63;5087816;28;19924;-65
2023/03/21 02:54:27;;;;;;;;;;;;;;;15.81;37.17;94898.13;5087272;28;19967;-67
2023/03/21 02:57:17;;;;;;;;;;;;;;;15.82;37.41;94899.72;5088311;28;19924;-65
2023/03/21 02:59:49;;;;;;;;;;;;;;;15.77;37.50;94891.84;5092249;28;19928;-65
2023/03/21 03:02:29;;;;;;;;;;;;;;;15.86;37.01;94890.13;5107424;28;20411;-65
2023/03/21 03:04:56;;;;;;;;;;;;;;;15.78;37.55;94896.06;5092255;28;19920;-65
2023/03/21 03:07:27;;;;;;;;;;;;;;;15.71;37.19;94893.00;5091753;28;19989;-64
2023/03/21 03:10:04;;;;;;;;;;;;;;;15.74;36.91;94895.88;5093159;28;19959;-67
2023/03/21 03:12:53;;;;;;;;;;;;;;;15.79;37.70;94897.63;5092684;28;20744;-61
2023/03/21 03:15:20;;;;;;;;;;;;;;;14.76;39.13;94908.19;5093291;28;19960;-59
2023/03/21 03:17:54;;;;;;;;;;;;;;;14.76;38.80;94903.69;5091197;28;20027;-64
2023/03/21 03:20:31;;;;;;;;;;;;;;;14.18;39.89;94917.94;5092534;28;19928;-66
2023/03/21 03:23:17;;;;;;;;;;;;;;;13.87;40.22;94913.97;5092528;28;19942;-63
2023/03/21 03:25:51;;;;;;;;;;;;;;;14.14;40.45;94911.66;5092171;28;19928;-62
2023/03/21 03:28:29;;;;;;;;;;;;;;;14.27;39.53;94910.28;5093855;28;19920;-67
2023/03/21 03:30:56;;;;;;;;;;;;;;;14.76;38.74;94893.13;5091825;28;19923;-64
2023/03/21 03:33:45;;;;;;;;;;;;;;;15.27;37.78;94896.72;5101528;28;20387;-61
2023/03/21 03:36:14;;;;;;;;;;;;;;;14.80;38.57;94899.44;5098873;28;19920;-65
2023/03/21 03:38:59;;;;;;;;;;;;;;;15.01;38.76;94906.06;5092283;28;19919;-61
2023/03/21 03:41:27;;;;;;;;;;;;;;;15.12;38.41;94898.78;5101528;28;20008;-63
2023/03/21 03:44:00;;;;;;;;;;;;;;;15.36;37.48;94898.75;5092559;28;19928;-67
2023/03/21 03:46:41;;;;;;;;;;;;;;;15.27;37.90;94897.81;5090972;28;19926;-66
2023/03/21 03:49:12;;;;;;;;;;;;;;;15.52;37.77;94902.78;5092109;28;19919;-65
2023/03/21 03:51:59;;;;;;;;;;;;;;;15.56;37.30;94901.94;5090955;28;20452;-66
2023/03/21 03:54:41;;;;;;;;;;;;;;;15.65;36.99;94902.88;5092624;28;19920;-64
2023/03/21 03:57:08;;;;;;;;;;;;;;;15.83;36.75;94890.69;5090308;28;19924;-62
2023/03/21 03:59:35;;;;;;;;;;;;;;;15.72;36.85;94897.22;5090371;28;19928;-61
2023/03/21 04:02:19;;;;;;;;;;;;;;;15.67;37.41;94905.22;5089978;28;19930;-62
2023/03/21 04:04:51;;;;;;;;;;;;;;;14.51;39.56;94911.88;5090615;28;20431;-64
2023/03/21 04:07:20;;;;;;;;;;;;;;;13.95;40.77;94913.41;5086210;28;19951;-61
2023/03/21 04:09:49;;;;;;;;;;;;;;;14.39;39.80;94908.84;5089749;28;19920;-65
2023/03/21 04:12:18;;;;;;;;;;;;;;;14.42;39.36;94918.81;5089508;28;19928;-65
2023/03/21 04:15:11;;;;;;;;;;;;;;;13.96;40.21;94914.94;5088643;28;19928;-66
2023/03/21 04:17:44;;;;;;;;;;;;;;;14.24;39.82;94914.22;5088797;28;20390;-63
2023/03/21 04:20:11;;;;;;;;;;;;;;;14.50;39.09;94910.31;5089082;28;19928;-63
2023/03/21 04:22:50;;;;;;;;;;;;;;;14.71;38.66;94906.38;5091069;28;19920;-67
2023/03/21 04:25:16;;;;;;;;;;;;;;;14.62;38.55;94908.06;5090348;28;19920;-69
2023/03/21 04:27:58;;;;;;;;;;;;;;;14.62;39.40;94902.78;5090502;28;19924;-66
2023/03/21 04:30:49;;;;;;;;;;;;;;;14.62;39.12;94902.78;5091702;28;20427;-60
2023/03/21 04:33:37;;;;;;;;;;;;;;;14.57;38.87;94899.41;5089692;28;20029;-65
2023/03/21 04:36:08;;;;;;;;;;;;;;;14.67;38.86;94889.53;5089506;28;20378;-66
2023/03/21 04:38:36;;;;;;;;;;;;;;;14.42;39.20;94897.72;5089510;28;19975;-62
2023/03/21 04:41:04;;;;;;;;;;;;;;;14.41;39.76;94901.44;5089225;28;20556;-69
2023/03/21 04:43:31;;;;;;;;;;;;;;;14.38;39.28;94901.22;5093049;28;19927;-62
2023/03/21 04:45:58;;;;;;;;;;;;;;;14.36;39.31;94898.81;5088973;28;19931;-68
2023/03/21 04:48:25;;;;;;;;;;;;;;;14.19;39.69;94904.50;5089526;28;19920;-66
2023/03/21 04:50:51;;;;;;;;;;;;;;;13.73;40.24;94905.13;5088919;28;19924;-63
2023/03/21 04:53:18;;;;;;;;;;;;;;;13.39;40.51;94914.81;5089228;28;19977;-64
2023/03/21 04:55:45;;;;;;;;;;;;;;;13.34;40.96;94914.84;5076734;28;20520;-70
2023/03/21 04:58:12;;;;;;;;;;;;;;;13.37;41.51;94911.69;5089442;28;19938;-66
2023/03/21 05:00:39;;;;;;;;;;;;;;;13.53;40.97;94915.78;5087817;28;19928;-68
2023/03/21 05:03:07;;;;;;;;;;;;;;;13.81;40.94;94912.44;5088192;28;20010;-69
2023/03/21 05:05:37;;;;;;;;;;;;;;;14.25;39.71;94913.13;5084126;28;19924;-63
2023/03/21 05:08:05;;;;;;;;;;;;;;;14.01;40.29;94915.69;5090377;28;20310;-68
2023/03/21 05:10:32;;;;;;;;;;;;;;;13.05;42.44;94936.56;5090972;28;20008;-67
2023/03/21 05:12:59;;;;;;;;;;;;;;;13.37;42.28;94924.84;5088818;28;19942;-67
2023/03/21 05:15:26;;;;;;;;;;;;;;;13.96;40.79;94920.22;5089207;28;19924;-66
2023/03/21 05:17:53;;;;;;;;;;;;;;;13.55;41.59;94925.00;5088364;28;19920;-66
2023/03/21 05:20:20;;;;;;;;;;;;;;;14.07;40.38;94917.25;5087750;28;20248;-66
2023/03/21 05:22:49;;;;;;;;;;;;;;;13.87;41.15;94922.66;5088375;28;20012;-66
2023/03/21 05:25:33;;;;;;;;;;;;;;;13.48;42.01;94928.97;5075314;28;20395;-64
2023/03/21 05:28:18;;;;;;;;;;;;;;;14.06;41.13;94930.69;5087235;28;19959;-63
2023/03/21 05:30:45;;;;;;;;;;;;;;;14.24;40.43;94927.38;5087805;28;19920;-65
2023/03/21 05:33:12;;;;;;;;;;;;;;;14.21;40.35;94925.31;5089570;28;19928;-64
2023/03/21 05:35:39;;;;;;;;;;;;;;;14.26;39.75;94925.25;5078757;28;19920;-64
2023/03/21 05:38:09;;;;;;;;;;;;;;;14.42;39.10;94923.28;5088037;28;20407;-65
2023/03/21 05:40:47;;;;;;;;;;;;;;;14.64;39.45;94924.41;5087663;28;19924;-65
2023/03/21 05:43:13;;;;;;;;;;;;;;;14.75;39.31;94917.94;5089661;28;19924;-66
2023/03/21 05:45:40;;;;;;;;;;;;;;;14.76;39.33;94919.50;5087403;28;20039;-64
2023/03/21 05:48:08;;;;;;;;;;;;;;;14.38;40.25;94917.78;5087724;28;20337;-66
2023/03/21 05:50:48;;;;;;;;;;;;;;;14.45;40.02;94923.53;5088178;28;19920;-69
2023/03/21 05:53:17;;;;;;;;;;;;;;;14.32;40.55;94913.66;5089245;28;19962;-67
2023/03/21 05:55:44;;;;;;;;;;;;;;;14.37;41.02;94910.97;5095184;28;19929;-62
2023/03/21 05:58:24;;;;;;;;;;;;;;;14.65;39.37;94904.84;5096335;28;19920;-64
2023/03/21 06:00:50;;;;;;;;;;;;;;;14.65;39.44;94907.50;5089146;28;19953;-65
2023/03/21 06:03:25;;;;;;;;;;;;;;;14.73;39.48;94896.34;5075406;28;19926;-63
2023/03/21 06:06:09;;;;;;;;;;;;;;;14.83;39.60;94888.34;5089274;28;19920;-66
2023/03/21 06:08:42;;;;;;;;;;;;;;;14.82;39.20;94897.28;5087393;28;20030;-66
2023/03/21 06:11:19;;;;;;;;;;;;;;;14.96;38.79;94898.19;5086690;28;19924;-66
2023/03/21 06:13:46;;;;;;;;;;;;;;;14.69;40.00;94892.69;5087269;28;19924;-65
2023/03/21 06:16:13;;;;;;;;;;;;;;;14.94;39.43;94891.63;5087645;28;20375;-67
2023/03/21 06:18:40;;;;;;;;;;;;;;;15.20;39.07;94880.47;5088617;28;19977;-61
2023/03/21 06:21:19;;;;;;;;;;;;;;;15.59;38.19;94892.63;5088194;28;19924;-66
2023/03/21 06:23:50;;;;;;;;;;;;;;;15.93;38.05;94885.28;5088278;28;19924;-66
2023/03/21 06:26:21;;;;;;;;;;;;;;;16.17;37.82;94880.63;5089596;28;19931;-66
2023/03/21 06:28:50;;;;;;;;;;;;;;;16.25;37.95;94885.25;5088956;28;19977;-64
2023/03/21 06:31:21;;;;;;;;;;;;;;;16.27;38.76;94880.47;5088882;28;19971;-62
2023/03/21 06:33:51;;;;;;;;;;;;;;;16.39;38.05;94880.78;5087178;28;19920;-63
2023/03/21 06:36:18;;;;;;;;;;;;;;;16.43;37.52;94881.78;5085478;28;20367;-70
2023/03/21 06:38:45;;;;;;;;;;;;;;;16.57;37.43;94879.19;5103603;28;20493;-65
2023/03/21 06:41:12;;;;;;;;;;;;;;;16.62;36.97;94877.22;5087354;28;19928;-62
2023/03/21 06:43:44;;;;;;;;;;;;;;;16.67;37.41;94882.44;5086626;28;19920;-70
2023/03/21 06:46:11;;;;;;;;;;;;;;;16.73;36.86;94889.16;5087916;28;20367;-68
2023/03/21 06:48:43;;;;;;;;;;;;;;;16.65;37.16;94892.50;5087428;28;19927;-66
2023/03/21 06:51:11;;;;;;;;;;;;;;;16.64;36.78;94890.16;5080947;28;19920;-63
2023/03/21 06:53:44;;;;;;;;;;;;;;;16.78;36.86;94894.38;5075685;28;19928;-64
2023/03/21 06:56:24;;;;;;;;;;;;;;;16.74;37.65;94896.03;5087743;28;19920;-61
2023/03/21 06:58:52;;;;;;;;;;;;;;;16.92;36.97;94895.16;5088767;28;20010;-65
2023/03/21 07:01:37;;;;;;;;;;;;;;;17.00;37.08;94902.44;5088258;28;19935;-68
2023/03/21 07:04:06;;;;;;;;;;;;;;;17.01;38.29;94900.53;5088512;28;19949;-63
2023/03/21 07:06:33;;;;;;;;;;;;;;;16.90;38.27;94902.63;5088055;28;19928;-64
2023/03/21 07:09:01;;;;;;;;;;;;;;;17.07;38.32;94908.13;5088407;28;20378;-66
2023/03/21 07:11:31;;;;;;;;;;;;;;;16.91;38.71;94906.84;5087990;28;19920;-64
2023/03/21 07:13:59;;;;;;;;;;;;;;;16.81;39.05;94906.22;5105272;28;19924;-63
2023/03/21 07:16:26;;;;;;;;;;;;;;;16.95;38.76;94907.81;5087495;28;19924;-60
2023/03/21 07:18:52;;;;;;;;;;;;;;;17.03;38.75;94901.84;5087903;28;19931;-61
2023/03/21 07:21:19;;;;;;;;;;;;;;;16.92;40.36;94905.75;5087482;28;19928;-65
2023/03/21 07:23:46;;;;;;;;;;;;;;;17.22;38.87;94907.03;5087877;28;19920;-68
2023/03/21 07:26:14;;;;;;;;;;;;;;;17.07;39.07;94902.81;5087806;28;19920;-65
2023/03/21 07:28:41;;;;;;;;;;;;;;;17.26;38.46;94913.31;5088035;28;19920;-66
2023/03/21 07:31:12;;;;;;;;;;;;;;;17.24;38.69;94910.91;5087547;28;19971;-62
2023/03/21 07:33:39;;;;;;;;;;;;;;;17.37;37.97;94898.75;5087914;28;19920;-63
2023/03/21 07:36:08;;;;;;;;;;;;;;;17.29;38.07;94907.41;5087487;28;20005;-65
2023/03/21 07:38:35;;;;;;;;;;;;;;;17.42;38.25;94901.31;5088222;28;19927;-69
2023/03/21 07:41:02;;;;;;;;;;;;;;;17.52;37.56;94895.00;5087350;28;19931;-65
2023/03/21 07:43:31;;;;;;;;;;;;;;;17.50;37.54;94902.50;5079230;28;19946;-68
2023/03/21 07:45:58;;;;;;;;;;;;;;;17.34;37.85;94898.56;5092431;28;19924;-62
2023/03/21 07:48:26;;;;;;;;;;;;;;;17.54;37.90;94900.81;5093317;28;19927;-63
2023/03/21 07:50:52;;;;;;;;;;;;;;;17.75;37.58;94896.63;5091072;28;19928;-65
2023/03/21 07:53:19;;;;;;;;;;;;;;;17.80;37.52;94897.31;5092826;28;20340;-70
2023/03/21 07:55:50;;;;;;;;;;;;;;;17.84;37.42;94902.78;5092619;28;20021;-63
2023/03/21 07:58:18;;;;;;;;;;;;;;;17.85;37.22;94899.03;5092401;28;19926;-69
2023/03/21 08:00:44;;;;;;;;;;;;;;;17.71;37.06;94907.06;5092681;28;19920;-65
2023/03/21 08:03:12;;;;;;;;;;;;;;;17.91;37.15;94898.66;5093214;28;19950;-67
2023/03/21 08:05:39;;;;;;;;;;;;;;;17.88;36.91;94903.75;5093108;28;19924;-65
2023/03/21 08:08:06;;;;;;;;;;;;;;;17.97;36.69;94894.00;5081474;28;20019;-66
2023/03/21 08:10:33;;;;;;;;;;;;;;;18.20;36.58;94895.56;5092831;28;19928;-63
2023/03/21 08:13:00;;;;;;;;;;;;;;;18.18;36.21;94892.41;5092433;28;19924;-66
2023/03/21 08:15:27;;;;;;;;;;;;;;;18.24;36.13;94891.22;5092819;28;19931;-68
2023/03/21 08:17:54;;;;;;;;;;;;;;;18.39;35.73;94898.81;5092285;28;20379;-66
2023/03/21 08:20:22;;;;;;;;;;;;;;;18.27;35.82;94901.22;5092656;28;19971;-61
2023/03/21 08:22:49;;;;;;;;;;;;;;;18.52;35.62;94892.66;5092371;28;19928;-67
2023/03/21 08:25:17;;;;;;;;;;;;;;;18.55;35.11;94889.41;5092494;28;20325;-65
2023/03/21 08:27:45;;;;;;;;;;;;;;;18.65;35.09;94875.84;5091969;28;19935;-63
2023/03/21 08:30:13;;;;;;;;;;;;;;;18.54;34.80;94885.16;5093010;28;19923;-60
2023/03/21 08:32:41;;;;;;;;;;;;;;;18.75;34.22;94880.13;5092552;28;19920;-67
2023/03/21 08:37:56;;;;;;;;;;;;;;;18.83;33.70;94877.50;5091603;28;19927;-66
2023/03/21 08:40:23;;;;;;;;;;;;;;;18.79;33.15;94870.47;5092097;28;19926;-65
2023/03/21 08:42:49;;;;;;;;;;;;;;;18.95;33.41;94876.91;5091975;28;19920;-60
2023/03/21 08:45:17;;;;;;;;;;;;;;;18.87;32.58;94875.78;5093685;28;20288;-66
2023/03/21 08:47:44;;;;;;;;;;;;;;;18.89;32.05;94870.97;5091312;28;19928;-64
2023/03/21 08:50:13;;;;;;;;;;;;;;;18.58;32.93;94886.13;5092914;28;19958;-66
2023/03/21 08:52:40;;;;;;;;;;;;;;;18.71;32.27;94889.78;5091548;28;19920;-64
2023/03/21 08:55:07;;;;;;;;;;;;;;;18.88;32.09;94874.72;5092484;28;19950;-67
2023/03/21 08:57:34;;;;;;;;;;;;;;;18.97;32.02;94878.19;5092786;28;20430;-65
2023/03/21 09:00:06;;;;;;;;;;;;;;;19.16;32.33;94876.03;5091885;28;20027;-62
2023/03/21 09:02:32;;;;;;;;;;;;;;;19.23;32.55;94871.03;5091545;28;19924;-62
2023/03/21 09:04:59;;;;;;;;;;;;;;;19.14;31.91;94872.91;5095423;28;20421;-65
2023/03/21 09:07:26;;;;;;;;;;;;;;;19.06;32.06;94860.41;5094781;28;20363;-63
2023/03/21 09:09:53;;;;;;;;;;;;;;;19.34;32.18;94860.16;5091503;28;19943;-68
2023/03/21 09:12:40;;;;;;;;;;;;;;;19.55;32.89;94858.47;5090262;28;19924;-62
2023/03/21 09:15:08;;;;;;;;;;;;;;;19.48;33.45;94856.28;5089993;28;19923;-62
2023/03/21 09:17:35;;;;;;;;;;;;;;;19.44;32.84;94854.53;5090751;28;19924;-60
2023/03/21 09:20:10;;;;;;;;;;;;;;;19.51;32.64;94852.19;5091616;28;19919;-63
2023/03/21 09:22:37;;;;;;;;;;;;;;;19.62;32.34;94845.47;5091178;28;19920;-63
2023/03/21 09:25:07;;;;;;;;;;;;;;;19.63;32.11;94847.06;5091564;28;19943;-66
2023/03/21 09:27:34;;;;;;;;;;;;;;;19.76;31.56;94840.81;5090781;28;20087;-63
2023/03/21 09:30:02;;;;;;;;;;;;;;;19.77;32.13;94842.38;5091214;28;19956;-61
2023/03/21 09:32:29;;;;;;;;;;;;;;;19.86;32.17;94827.19;5091166;28;20245;-61
2023/03/21 09:34:56;;;;;;;;;;;;;;;20.02;31.91;94825.59;5091758;28;19928;-67
2023/03/21 09:37:23;;;;;;;;;;;;;;;20.04;31.49;94824.19;5091377;28;19956;-68
2023/03/21 09:39:50;;;;;;;;;;;;;;;20.18;31.31;94835.44;5092461;28;19947;-62
2023/03/21 09:42:30;;;;;;;;;;;;;;;20.36;31.33;94828.22;5095723;28;19920;-63
2023/03/21 09:45:01;;;;;;;;;;;;;;;20.32;31.27;94811.31;5099498;28;19920;-60
2023/03/21 09:47:33;;;;;;;;;;;;;;;20.37;31.26;94808.47;5102330;28;19920;-60
2023/03/21 09:50:09;;;;;;;;;;;;;;;20.28;31.59;94805.06;5089176;28;19981;-62
2023/03/21 09:52:42;;;;;;;;;;;;;;;20.31;31.71;94804.41;5101832;28;19935;-60
2023/03/21 09:55:21;;;;;;;;;;;;;;;20.36;31.55;94806.94;5101767;28;19924;-61
2023/03/21 09:57:51;;;;;;;;;;;;;;;20.50;31.25;94810.16;5092066;28;20334;-66
2023/03/21 10:00:28;;;;;;;;;;;;;;;20.63;31.35;94816.38;5089256;28;20314;-64
2023/03/21 10:02:58;;;;;;;;;;;;;;;20.54;31.72;94813.75;5090337;28;19973;-63
2023/03/21 10:05:28;;;;;;;;;;;;;;;20.64;31.37;94813.38;5090331;28;19924;-65
2023/03/21 10:07:57;;;;;;;;;;;;;;;20.58;31.36;94804.03;5090184;28;20329;-64
2023/03/21 10:10:27;;;;;;;;;;;;;;;20.76;31.67;94799.41;5090739;28;20349;-66
2023/03/21 10:12:55;;;;;;;;;;;;;;;20.69;31.25;94799.88;5090127;28;19924;-64
2023/03/21 10:15:23;;;;;;;;;;;;;;;20.74;31.22;94794.41;5090973;28;19920;-68
2023/03/21 10:17:54;;;;;;;;;;;;;;;20.85;31.11;94787.63;5091123;28;19953;-63
2023/03/21 10:20:37;;;;;;;;;;;;;;;21.08;31.52;94780.91;5090697;28;19923;-65
2023/03/21 10:23:05;;;;;;;;;;;;;;;21.28;30.94;94782.03;5090493;28;19928;-63
2023/03/21 10:25:34;;;;;;;;;;;;;;;21.36;29.71;94775.06;5090708;28;19931;-66
2023/03/21 10:28:04;;;;;;;;;;;;;;;21.69;30.33;94767.91;5090472;28;19927;-67
2023/03/21 10:30:37;;;;;;;;;;;;;;;22.02;29.02;94774.06;5089936;28;19920;-66
2023/03/21 10:33:08;;;;;;;;;;;;;;;21.96;28.75;94772.69;5090006;28;19924;-63
2023/03/21 10:35:36;;;;;;;;;;;;;;;22.00;27.66;94770.94;5090488;28;20034;-66
2023/03/21 10:38:04;;;;;;;;;;;;;;;22.19;27.50;94775.75;5089759;28;19923;-67
2023/03/21 10:40:31;;;;;;;;;;;;;;;22.23;27.66;94777.41;5089610;28;19919;-63
2023/03/21 10:43:20;;;;;;;;;;;;;;;22.44;27.99;94778.13;5089341;28;20014;-68
2023/03/21 10:45:47;;;;;;;;;;;;;;;22.43;27.72;94778.44;5089523;28;19927;-61
2023/03/21 10:48:14;;;;;;;;;;;;;;;22.39;27.37;94781.00;5089748;28;19928;-65
2023/03/21 10:50:42;;;;;;;;;;;;;;;22.53;27.88;94776.16;5089576;28;19920;-64
2023/03/21 10:53:14;;;;;;;;;;;;;;;22.60;27.96;94771.06;5090258;28;19953;-63
2023/03/21 10:55:42;;;;;;;;;;;;;;;21.71;25.62;94771.81;5089287;28;19924;-65
2023/03/21 10:58:17;;;;;;;;;;;;;;;22.07;26.25;94771.94;5089106;28;20019;-64
2023/03/21 11:00:45;;;;;;;;;;;;;;;22.06;25.67;94761.63;5089723;28;20023;-65
2023/03/21 11:03:22;;;;;;;;;;;;;;;22.33;25.56;94763.66;5089716;28;20316;-66
2023/03/21 11:05:54;;;;;;;;;;;;;;;22.26;25.76;94754.63;5089423;28;19985;-61
2023/03/21 11:08:21;;;;;;;;;;;;;;;22.64;25.87;94747.91;5090492;28;19924;-68
2023/03/21 11:10:59;;;;;;;;;;;;;;;22.72;25.97;94736.31;5089703;28;20337;-64
2023/03/21 11:13:32;;;;;;;;;;;;;;;22.67;25.46;94736.56;5089764;28;19920;-64
2023/03/21 11:16:10;;;;;;;;;;;;;;;22.53;25.11;94733.41;5089126;28;20562;-66
2023/03/21 11:18:41;;;;;;;;;;;;;;;22.48;25.10;94735.53;5093419;28;20035;-62
2023/03/21 11:21:10;;;;;;;;;;;;;;;22.72;25.63;94736.31;5092984;28;19919;-69
2023/03/21 11:23:44;;;;;;;;;;;;;;;22.77;25.47;94733.41;5093637;28;19977;-67
2023/03/21 11:26:15;;;;;;;;;;;;;;;23.01;25.37;94728.03;5092849;28;20015;-67
2023/03/21 11:28:43;;;;;;;;;;;;;;;23.17;25.34;94719.34;5093259;28;19923;-64
2023/03/21 11:31:10;;;;;;;;;;;;;;;22.94;25.27;94727.06;5093062;28;19971;-66
2023/03/21 11:33:39;;;;;;;;;;;;;;;22.85;26.06;94718.38;5093333;28;20011;-64
2023/03/21 11:36:06;;;;;;;;;;;;;;;23.03;25.54;94709.78;5092658;28;19923;-63
2023/03/21 11:38:37;;;;;;;;;;;;;;;23.19;25.58;94711.75;5087504;28;20042;-70
2023/03/21 11:41:04;;;;;;;;;;;;;;;23.28;25.33;94707.06;5086122;28;20018;-68
2023/03/21 11:43:36;;;;;;;;;;;;;;;23.24;25.18;94698.16;5080595;28;20329;-67
2023/03/21 11:46:02;;;;;;;;;;;;;;;22.93;25.34;94696.91;5092863;28;19924;-65
2023/03/21 11:48:32;;;;;;;;;;;;;;;22.99;25.36;94698.22;5093282;28;19923;-64
2023/03/21 11:51:19;;;;;;;;;;;;;;;22.94;25.42;94695.78;5092795;28;20283;-65
2023/03/21 11:54:01;;;;;;;;;;;;;;;23.03;25.38;94692.97;5070358;28;20037;-64
2023/03/21 11:56:32;;;;;;;;;;;;;;;23.40;24.38;94691.78;5078616;28;20363;-65
2023/03/21 11:59:17;;;;;;;;;;;;;;;23.38;24.68;94687.88;5093777;28;19977;-68
2023/03/21 12:01:50;;;;;;;;;;;;;;;23.35;25.15;94684.00;5081070;28;19956;-64
2023/03/21 12:04:39;;;;;;;;;;;;;;;23.44;24.58;94686.53;5092088;28;20646;-68
2023/03/21 12:07:21;;;;;;;;;;;;;;;22.40;24.22;94681.13;5092801;28;19982;-65
2023/03/21 12:09:48;;;;;;;;;;;;;;;22.91;24.81;94672.41;5093095;28;19969;-63
2023/03/21 12:12:38;;;;;;;;;;;;;;;22.97;24.73;94665.69;5092745;28;19924;-66
2023/03/21 12:15:25;;;;;;;;;;;;;;;23.31;24.57;94666.28;5044368;28;19971;-62
2023/03/21 12:18:12;;;;;;;;;;;;;;;23.24;24.22;94664.19;5069718;28;20056;-68
2023/03/21 12:20:45;;;;;;;;;;;;;;;23.08;24.12;94653.41;5057764;28;19931;-63
2023/03/21 12:23:17;;;;;;;;;;;;;;;23.12;24.05;94658.84;5091068;28;19924;-67
2023/03/21 12:26:04;;;;;;;;;;;;;;;23.35;25.41;94656.47;5091948;28;19993;-65
2023/03/21 12:28:46;;;;;;;;;;;;;;;23.10;24.20;94659.19;5092052;28;20603;-64
2023/03/21 12:31:21;;;;;;;;;;;;;;;23.45;24.17;94656.00;5092036;28;19947;-64
2023/03/21 12:33:51;;;;;;;;;;;;;;;23.26;24.64;94653.13;5091950;28;19924;-67
2023/03/21 12:36:23;;;;;;;;;;;;;;;23.37;24.89;94643.53;5091535;28;19928;-65
2023/03/21 12:38:56;;;;;;;;;;;;;;;23.01;25.16;94644.41;5092139;28;19920;-67
2023/03/21 12:41:49;;;;;;;;;;;;;;;23.22;24.88;94644.25;5091278;28;20050;-62
2023/03/21 12:44:16;;;;;;;;;;;;;;;23.26;24.80;94639.78;5062465;28;20360;-69
2023/03/21 12:47:01;;;;;;;;;;;;;;;23.34;25.05;94633.53;5078760;28;19920;-66
2023/03/21 12:49:31;;;;;;;;;;;;;;;23.21;24.69;94634.69;5092867;28;19970;-62
2023/03/21 12:52:01;;;;;;;;;;;;;;;23.00;24.44;94627.63;5092559;28;19927;-63
2023/03/21 12:54:28;;;;;;;;;;;;;;;23.26;24.61;94632.53;5091583;28;20069;-67
2023/03/21 12:56:57;;;;;;;;;;;;;;;23.35;24.69;94632.41;5091216;28;19924;-65
2023/03/21 12:59:29;;;;;;;;;;;;;;;23.34;24.02;94628.19;5092291;28;19923;-63
2023/03/21 13:02:01;;;;;;;;;;;;;;;23.16;24.20;94627.66;5091537;28;19970;-67
2023/03/21 13:04:28;;;;;;;;;;;;;;;23.33;24.55;94623.94;5091723;28;19924;-67
2023/03/21 13:06:58;;;;;;;;;;;;;;;23.49;23.98;94616.72;5091246;28;19989;-64
2023/03/21 13:09:45;;;;;;;;;;;;;;;23.14;24.25;94608.50;5091865;28;19932;-66
2023/03/21 13:12:18;;;;;;;;;;;;;;;22.80;24.10;94615.22;5091261;28;19949;-66
2023/03/21 13:15:00;;;;;;;;;;;;;;;22.72;24.56;94608.09;5091843;28;19931;-65
2023/03/21 13:17:33;;;;;;;;;;;;;;;22.94;25.39;94606.81;5077637;28;19996;-64